Time;durP1;ratioP1;P1;durP2;ratioP2;P2;SDS_P1;SDS_P2;PMS_P1;PMS_P2;Temp;Humidity;BMP_temperature;BMP_pressure;BME280_temperature;BME280_humidity;BME280_pressure;Samples;Min_cycle;Max_cycle;Signal;HPM_P1;HPM_P2
2023/12/30 00:02:05;;;;;;;44.47;23.17;;;;;;;-144.30;91.21;86583.44;5112343;28;20255;-60
2023/12/30 00:04:32;;;;;;;40.90;23.63;;;;;;;-144.30;91.33;86557.59;5112333;28;20191;-54
2023/12/30 00:06:59;;;;;;;42.60;23.50;;;;;;;-144.30;91.82;86517.81;5112488;28;20203;-61
2023/12/30 00:09:26;;;;;;;49.67;25.13;;;;;;;-144.30;91.91;86557.59;5112656;27;20198;-62
2023/12/30 00:11:54;;;;;;;44.23;24.87;;;;;;;-144.30;92.55;86573.50;5112158;28;20305;-62
2023/12/30 00:14:23;;;;;;;46.30;24.60;;;;;;;-144.30;92.74;86583.44;5112059;28;20235;-61
2023/12/30 00:16:50;;;;;;;49.43;24.53;;;;;;;-144.30;92.93;86593.38;5112234;28;20585;-62
2023/12/30 00:19:16;;;;;;;48.40;24.90;;;;;;;-144.30;93.35;86593.38;5112254;28;20277;-55
2023/12/30 00:21:43;;;;;;;48.43;25.40;;;;;;;-144.30;93.90;86545.66;5112198;28;20217;-53
2023/12/30 00:24:10;;;;;;;46.93;24.57;;;;;;;-144.30;93.95;86553.59;5111042;28;20581;-54
2023/12/30 00:26:37;;;;;;;52.97;26.00;;;;;;;-144.30;94.09;86571.50;5112008;28;20191;-54
2023/12/30 00:29:04;;;;;;;47.80;24.07;;;;;;;-144.30;94.01;86577.47;5112064;28;20190;-54
2023/12/30 00:31:32;;;;;;;41.77;23.50;;;;;;;-144.30;93.41;86533.72;5111726;28;20222;-61
2023/12/30 00:34:00;;;;;;;44.47;22.87;;;;;;;-144.30;93.05;86569.50;5111908;28;20249;-63
2023/12/30 00:36:28;;;;;;;42.67;23.00;;;;;;;-144.30;92.98;86569.50;5112071;28;20678;-62
2023/12/30 00:38:55;;;;;;;39.57;21.53;;;;;;;-144.30;92.72;86511.84;5112024;28;20580;-62
2023/12/30 00:41:21;;;;;;;36.07;20.70;;;;;;;-144.30;92.54;86487.97;5111628;28;20240;-62
2023/12/30 00:43:48;;;;;;;33.80;20.33;;;;;;;-144.30;92.50;86585.44;5111202;28;20668;-62
2023/12/30 00:46:15;;;;;;;39.07;20.97;;;;;;;-144.30;93.22;86585.44;5111779;28;20714;-63
2023/12/30 00:48:44;;;;;;;32.07;19.03;;;;;;;-144.30;92.52;86557.59;5111604;28;20201;-61
2023/12/30 00:51:10;;;;;;;35.63;19.90;;;;;;;-144.30;92.35;86591.38;5111893;28;20607;-62
2023/12/30 00:53:37;;;;;;;38.13;19.97;;;;;;;-144.30;92.28;86565.53;5111475;28;20351;-63
2023/12/30 00:56:05;;;;;;;33.27;19.10;;;;;;;-144.30;91.25;86555.59;5111700;28;20197;-54
2023/12/30 00:58:31;;;;;;;39.90;21.60;;;;;;;-144.30;90.63;86591.38;5111350;28;20202;-54
2023/12/30 01:00:58;;;;;;;35.77;19.40;;;;;;;-144.30;90.48;86559.56;5111317;28;20576;-61
2023/12/30 01:03:25;;;;;;;36.20;19.23;;;;;;;-144.30;90.97;86561.56;5111550;28;20675;-55
2023/12/30 01:05:54;;;;;;;32.87;18.90;;;;;;;-144.30;91.60;86555.59;5111284;28;20190;-61
2023/12/30 01:08:20;;;;;;;31.83;18.97;;;;;;;-144.30;92.21;86575.47;5111358;28;20203;-62
2023/12/30 01:10:47;;;;;;;37.03;19.13;;;;;;;-144.30;92.40;86599.34;5110918;28;20187;-54
2023/12/30 01:13:14;;;;;;;37.60;20.10;;;;;;;-144.30;92.63;86581.44;5111201;28;20241;-54
2023/12/30 01:15:41;;;;;;;34.73;19.40;;;;;;;-144.30;92.29;86571.50;5110836;28;20198;-54
2023/12/30 01:18:08;;;;;;;31.67;18.93;;;;;;;-144.30;91.89;86583.44;5111058;28;20226;-54
2023/12/30 01:20:35;;;;;;;34.90;18.77;;;;;;;-144.30;91.35;86575.47;5111334;28;20253;-62
2023/12/30 01:23:04;;;;;;;37.60;18.53;;;;;;;-144.30;91.18;86577.47;5110844;28;20193;-57
2023/12/30 01:25:30;;;;;;;30.73;17.43;;;;;;;-144.30;90.86;86563.56;5110626;28;20211;-62
2023/12/30 01:27:57;;;;;;;34.50;17.03;;;;;;;-144.30;90.65;86593.38;5110927;28;20195;-63
2023/12/30 01:30:24;;;;;;;27.13;16.73;;;;;;;-144.30;91.04;86549.63;5111327;28;20726;-62
2023/12/30 01:32:51;;;;;;;31.50;17.77;;;;;;;-144.30;91.71;86585.44;5110629;28;20218;-61
2023/12/30 01:35:18;;;;;;;27.13;16.43;;;;;;;-144.30;92.24;86569.50;5110354;28;20201;-53
2023/12/30 01:37:45;;;;;;;32.37;17.13;;;;;;;-144.30;92.98;86593.38;5110634;28;20200;-61
2023/12/30 01:40:14;;;;;;;32.23;18.63;;;;;;;-144.30;93.16;86541.69;5110696;28;20570;-62
2023/12/30 01:42:41;;;;;;;31.43;18.13;;;;;;;-144.30;92.77;86597.34;5109936;28;20718;-61
2023/12/30 01:45:09;;;;;;;37.90;18.90;;;;;;;-144.30;92.53;86607.31;5110476;28;20206;-54
2023/12/30 01:47:36;;;;;;;33.37;18.93;;;;;;;-144.30;92.62;86563.56;5110321;28;20220;-63
2023/12/30 01:50:05;;;;;;;35.37;19.43;;;;;;;-144.30;92.23;86591.38;5110584;28;20199;-62
2023/12/30 01:52:33;;;;;;;35.20;19.77;;;;;;;-144.30;91.56;86557.59;5110543;28;20237;-62
2023/12/30 01:55:00;;;;;;;38.30;18.23;;;;;;;-144.30;92.03;86541.69;5110171;28;20589;-62
2023/12/30 01:57:28;;;;;;;35.50;18.57;;;;;;;-144.30;92.07;86591.38;5110207;28;20208;-62
2023/12/30 01:59:55;;;;;;;33.30;18.07;;;;;;;-144.30;92.08;86575.47;5110345;28;20220;-54
2023/12/30 02:02:22;;;;;;;32.67;18.13;;;;;;;-144.30;91.50;86573.50;5110350;28;20199;-54
2023/12/30 02:04:50;;;;;;;28.37;16.57;;;;;;;-144.30;91.43;86559.56;5110142;28;20659;-54
2023/12/30 02:07:17;;;;;;;28.97;16.33;;;;;;;-144.30;90.87;86581.44;5110099;28;20191;-54
2023/12/30 02:09:43;;;;;;;28.63;15.53;;;;;;;-144.30;90.75;86565.53;5109780;28;20195;-62
2023/12/30 02:12:10;;;;;;;30.70;15.20;;;;;;;-144.30;91.13;86571.50;5110072;28;20215;-62
2023/12/30 02:14:39;;;;;;;27.17;16.37;;;;;;;-144.30;90.80;86581.44;5109877;28;20205;-61
2023/12/30 02:17:06;;;;;;;29.20;15.70;;;;;;;-144.30;90.76;86613.28;5110031;28;20201;-60
2023/12/30 02:19:34;;;;;;;30.93;17.73;;;;;;;-144.30;91.74;86593.38;5109993;28;20630;-62
2023/12/30 02:22:00;;;;;;;31.30;18.30;;;;;;;-144.30;92.05;86597.34;5109957;28;20198;-62
2023/12/30 02:24:29;;;;;;;32.77;18.43;;;;;;;-144.30;92.42;86873.78;5109892;28;20281;-62
2023/12/30 02:26:56;;;;;;;31.40;18.50;;;;;;;-144.30;92.67;86601.34;5110182;28;20194;-62
2023/12/30 02:29:23;;;;;;;36.00;19.47;;;;;;;-144.30;93.39;86557.59;5110189;28;20742;-63
2023/12/30 02:31:50;;;;;;;32.77;18.63;;;;;;;-144.30;94.03;86633.16;5109928;28;20685;-62
2023/12/30 02:34:18;;;;;;;32.80;18.57;;;;;;;-144.30;94.19;86593.38;5110005;28;20217;-62
2023/12/30 02:36:46;;;;;;;32.17;18.33;;;;;;;-144.30;94.51;86593.38;5109808;28;20575;-62
2023/12/30 02:39:13;;;;;;;34.07;18.87;;;;;;;-144.30;94.16;86621.22;5109963;28;20195;-53
2023/12/30 02:41:42;;;;;;;36.37;20.90;;;;;;;-144.30;93.71;86587.41;5110022;28;20682;-53
2023/12/30 02:44:09;;;;;;;41.37;20.50;;;;;;;-144.30;93.80;86348.78;5110018;28;20592;-61
2023/12/30 02:46:36;;;;;;;38.47;19.47;;;;;;;-144.30;93.65;86581.44;5110890;28;20208;-54
2023/12/30 02:49:04;;;;;;;38.90;19.03;;;;;;;-144.30;93.83;86627.19;5113870;28;20722;-61
2023/12/30 02:51:31;;;;;;;37.87;19.53;;;;;;;-144.30;94.11;86589.41;5113743;27;20608;-62
2023/12/30 02:54:00;;;;;;;35.50;19.53;;;;;;;-144.30;93.93;86635.13;5114174;28;20218;-61
2023/12/30 02:56:28;;;;;;;32.77;18.40;;;;;;;-144.30;94.26;86609.28;5114016;28;20599;-62
2023/12/30 02:58:58;;;;;;;35.27;17.87;;;;;;;-144.30;93.88;86597.34;5113744;28;20685;-53
2023/12/30 03:01:27;;;;;;;29.30;15.93;;;;;;;-144.30;93.73;86609.28;5113677;28;20190;-53
2023/12/30 03:03:55;;;;;;;36.20;17.77;;;;;;;-144.30;93.49;86595.38;5113936;28;20728;-60
2023/12/30 03:06:23;;;;;;;29.77;16.50;;;;;;;-144.30;92.87;86545.66;5113785;28;20693;-53
2023/12/30 03:08:50;;;;;;;28.50;16.43;;;;;;;-144.30;92.84;86615.25;5113614;28;20690;-54
2023/12/30 03:11:17;;;;;;;29.57;16.43;;;;;;;-144.30;92.83;86601.34;5113810;28;20199;-62
2023/12/30 03:13:44;;;;;;;26.60;15.77;;;;;;;-144.30;92.88;86553.59;5113658;28;20217;-61
2023/12/30 03:16:14;;;;;;;31.67;16.87;;;;;;;-144.30;92.92;86607.31;5113649;28;20195;-54
2023/12/30 03:18:41;;;;;;;28.60;15.77;;;;;;;-144.30;93.28;86625.19;5113241;28;20642;-53
2023/12/30 03:21:10;;;;;;;31.77;15.87;;;;;;;-144.30;94.02;86619.22;5113669;28;20204;-62
2023/12/30 03:23:37;;;;;;;24.03;15.03;;;;;;;-144.30;94.19;86605.31;5113408;28;20636;-62
2023/12/30 03:26:05;;;;;;;25.43;14.47;;;;;;;-144.30;94.09;86633.16;5113499;28;20202;-61
2023/12/30 03:28:32;;;;;;;24.30;14.23;;;;;;;-144.30;94.17;86617.25;5113025;28;20285;-53
2023/12/30 03:30:59;;;;;;;27.77;15.07;;;;;;;-144.30;93.71;86619.22;5113018;28;20606;-53
2023/12/30 03:33:28;;;;;;;25.97;15.93;;;;;;;-144.30;93.46;86591.38;5113151;28;20229;-54
2023/12/30 03:35:55;;;;;;;26.57;15.47;;;;;;;-144.30;93.75;86621.22;5112939;28;20191;-54
2023/12/30 03:38:22;;;;;;;24.30;15.13;;;;;;;-144.30;93.32;86601.34;5113108;28;20202;-53
2023/12/30 03:40:49;;;;;;;29.97;16.77;;;;;;;-144.30;92.93;86617.25;5112974;28;20409;-52
2023/12/30 03:43:16;;;;;;;29.90;17.50;;;;;;;-144.30;92.34;86647.06;5112857;28;20227;-54
2023/12/30 03:45:43;;;;;;;31.27;17.30;;;;;;;-144.30;92.21;86597.34;5112463;28;20201;-53
2023/12/30 03:48:10;;;;;;;34.50;18.90;;;;;;;-144.30;92.34;86565.53;5112899;28;20190;-62
2023/12/30 03:50:38;;;;;;;34.77;20.07;;;;;;;-144.30;92.21;86629.19;5112747;28;20194;-62
2023/12/30 03:53:05;;;;;;;32.00;19.10;;;;;;;-144.30;92.25;86587.41;5112861;28;20608;-62
2023/12/30 03:55:32;;;;;;;33.00;19.77;;;;;;;-144.30;92.38;86619.22;5112962;28;20203;-62
2023/12/30 03:57:59;;;;;;;36.87;19.33;;;;;;;-144.30;92.81;86643.09;5112611;28;20749;-62
2023/12/30 04:00:26;;;;;;;40.50;20.60;;;;;;;-144.30;92.68;86621.22;5112655;28;20210;-53
2023/12/30 04:02:52;;;;;;;40.50;22.50;;;;;;;-144.30;92.95;86625.19;5112367;28;20658;-53
2023/12/30 04:05:20;;;;;;;38.53;21.10;;;;;;;-144.30;93.70;86617.25;5112750;28;20576;-53
2023/12/30 04:07:48;;;;;;;39.33;21.97;;;;;;;-144.30;93.58;86621.22;5112521;28;20662;-61
2023/12/30 04:10:17;;;;;;;40.47;22.67;;;;;;;-144.30;93.35;86625.19;5112332;28;20255;-62
2023/12/30 04:12:44;;;;;;;48.23;23.37;;;;;;;-144.30;93.54;86653.03;5111908;28;20225;-62
2023/12/30 04:15:11;;;;;;;39.40;23.03;;;;;;;-144.30;92.80;86611.28;5112465;28;20624;-54
2023/12/30 04:17:38;;;;;;;44.37;23.20;;;;;;;-144.30;93.13;86633.16;5112257;28;20198;-54
2023/12/30 04:20:06;;;;;;;43.67;24.10;;;;;;;-144.30;92.96;86593.38;5112252;28;20588;-53
2023/12/30 04:22:33;;;;;;;46.17;25.37;;;;;;;-144.30;92.93;86621.22;5112117;28;20202;-53
2023/12/30 04:25:02;;;;;;;50.77;27.07;;;;;;;-144.30;93.17;86649.06;5112148;28;20194;-52
2023/12/30 04:27:29;;;;;;;43.10;23.47;;;;;;;-144.30;93.13;86641.09;5111793;28;20669;-54
2023/12/30 04:29:56;;;;;;;43.43;23.33;;;;;;;-144.30;93.25;86609.28;5112283;28;20241;-61
2023/12/30 04:32:24;;;;;;;42.77;23.83;;;;;;;-144.30;93.22;86609.28;5112260;28;20287;-61
2023/12/30 04:34:51;;;;;;;51.93;28.00;;;;;;;-144.30;93.44;86625.19;5111983;28;20208;-60
2023/12/30 04:37:20;;;;;;;57.63;31.00;;;;;;;-144.30;93.86;86611.28;5112155;28;20197;-62
2023/12/30 04:39:47;;;;;;;56.10;28.93;;;;;;;-144.30;94.60;86609.28;5111518;28;20205;-53
2023/12/30 04:42:16;;;;;;;45.87;26.53;;;;;;;-144.30;94.33;86621.22;5111822;28;20628;-61
2023/12/30 04:44:43;;;;;;;53.23;24.87;;;;;;;-144.30;94.27;86621.22;5111668;28;20282;-61
2023/12/30 04:47:10;;;;;;;42.03;23.87;;;;;;;-144.30;94.14;86621.22;5111924;28;20629;-62
2023/12/30 04:49:36;;;;;;;47.27;25.23;;;;;;;-144.30;93.61;86617.25;5111546;28;20204;-53
2023/12/30 04:52:04;;;;;;;47.57;25.53;;;;;;;-144.30;93.47;86589.41;5111585;28;20191;-54
2023/12/30 04:54:31;;;;;;;52.83;26.57;;;;;;;-144.30;93.05;86629.19;5111367;28;20214;-61
2023/12/30 04:56:58;;;;;;;45.23;24.50;;;;;;;-144.30;92.65;86619.22;5111499;28;20198;-53
2023/12/30 04:59:27;;;;;;;42.30;23.87;;;;;;;-144.30;92.57;86607.31;5111815;28;20199;-62
2023/12/30 05:01:54;;;;;;;45.17;24.03;;;;;;;-144.30;92.36;86623.22;5111395;28;20276;-54
2023/12/30 05:04:21;;;;;;;44.67;24.57;;;;;;;-144.30;91.91;86619.22;5111739;28;20447;-54
2023/12/30 05:06:48;;;;;;;44.67;25.17;;;;;;;-144.30;92.45;86633.16;5111116;28;20750;-54
2023/12/30 05:09:15;;;;;;;46.90;25.07;;;;;;;-144.30;92.27;86577.47;5110540;28;20251;-61
2023/12/30 05:11:45;;;;;;;46.00;26.00;;;;;;;-144.30;92.52;86623.22;5111210;28;20591;-61
2023/12/30 05:14:12;;;;;;;46.27;25.47;;;;;;;-144.30;92.50;86621.22;5111430;28;20603;-61
2023/12/30 05:16:45;;;;;;;48.13;26.13;;;;;;;-144.30;92.46;86641.09;5110771;28;20202;-54
2023/12/30 05:19:12;;;;;;;46.97;26.90;;;;;;;-144.30;91.90;86607.31;5111196;28;20195;-55
2023/12/30 05:21:39;;;;;;;69.43;30.80;;;;;;;-144.30;91.43;86625.19;5110631;28;20194;-54
2023/12/30 05:24:07;;;;;;;61.40;28.40;;;;;;;-144.30;91.33;86637.13;5111080;28;20575;-55
2023/12/30 05:26:34;;;;;;;62.80;30.80;;;;;;;-144.30;91.45;86595.38;5110684;28;20195;-63
2023/12/30 05:29:00;;;;;;;56.97;27.27;;;;;;;-144.30;91.82;86647.06;5110857;28;20282;-62
2023/12/30 05:31:27;;;;;;;59.30;28.27;;;;;;;-144.30;92.06;86661.00;5110920;28;20233;-61
2023/12/30 05:33:56;;;;;;;69.87;32.93;;;;;;;-144.30;92.33;86619.22;5110364;28;20227;-53
2023/12/30 05:36:23;;;;;;;93.83;42.67;;;;;;;-144.30;91.72;86627.19;5110574;28;20208;-54
2023/12/30 05:38:49;;;;;;;89.20;39.67;;;;;;;-144.30;92.20;86605.31;5110482;28;20198;-54
2023/12/30 05:41:16;;;;;;;84.27;38.47;;;;;;;-144.30;92.35;86629.19;5110314;28;20201;-54
2023/12/30 05:43:43;;;;;;;77.07;36.73;;;;;;;-144.30;92.74;86637.13;5110391;28;20208;-55
2023/12/30 05:46:16;;;;;;;88.23;41.77;;;;;;;-144.30;92.59;86318.97;5110567;28;20204;-55
2023/12/30 05:48:43;;;;;;;102.40;58.60;;;;;;;-144.30;92.69;86641.09;5110319;28;20187;-54
2023/12/30 05:51:12;;;;;;;94.43;52.10;;;;;;;-144.30;92.10;86641.09;5110701;28;20344;-54
2023/12/30 05:53:40;;;;;;;81.53;43.80;;;;;;;-144.30;91.71;86635.13;5109984;28;20229;-54
2023/12/30 05:56:07;;;;;;;73.40;40.47;;;;;;;-144.30;92.13;86635.13;5110478;28;20221;-62
2023/12/30 05:58:35;;;;;;;60.90;33.83;;;;;;;-144.30;92.31;86617.25;5110315;28;20194;-62
2023/12/30 06:01:02;;;;;;;61.17;33.00;;;;;;;-144.30;91.84;86627.19;5109954;28;20655;-62
2023/12/30 06:03:29;;;;;;;55.13;32.10;;;;;;;-144.30;91.91;86617.25;5110385;28;20833;-61
2023/12/30 06:05:56;;;;;;;59.37;30.90;;;;;;;-144.30;91.64;86613.28;5110331;28;20256;-61
2023/12/30 06:08:25;;;;;;;56.20;31.20;;;;;;;-144.30;91.65;86629.19;5110048;28;20203;-61
2023/12/30 06:10:53;;;;;;;65.50;31.70;;;;;;;-144.30;91.45;86609.28;5110177;28;20237;-61
2023/12/30 06:13:20;;;;;;;77.20;37.30;;;;;;;-144.30;91.21;86625.19;5110302;28;20222;-61
2023/12/30 06:15:51;;;;;;;74.17;36.60;;;;;;;-144.30;91.48;86631.16;5109909;28;20202;-62
2023/12/30 06:18:18;;;;;;;64.80;33.03;;;;;;;-144.30;91.28;86625.19;5110376;28;20213;-62
2023/12/30 06:20:46;;;;;;;57.00;29.30;;;;;;;-144.30;90.83;86625.19;5109847;28;20590;-62
2023/12/30 06:23:13;;;;;;;53.23;27.10;;;;;;;-144.30;90.61;86657.03;5109894;28;20199;-61
2023/12/30 06:25:41;;;;;;;61.87;29.33;;;;;;;-144.30;90.75;86591.38;5109758;28;20301;-61
2023/12/30 06:28:08;;;;;;;50.10;27.20;;;;;;;-144.30;90.91;86591.38;5109947;28;20195;-55
2023/12/30 06:30:35;;;;;;;50.00;27.20;;;;;;;-144.30;90.60;86607.31;5109985;28;20191;-59
2023/12/30 06:33:06;;;;;;;55.97;30.13;;;;;;;-144.30;89.93;86553.59;5104909;28;20198;-54
2023/12/30 06:35:34;;;;;;;62.50;30.03;;;;;;;-144.30;89.08;86565.53;5109450;28;20242;-61
2023/12/30 06:38:02;;;;;;;54.43;29.23;;;;;;;-144.30;89.08;86567.53;5109673;28;20601;-61
2023/12/30 06:40:29;;;;;;;58.60;30.00;;;;;;;-144.30;88.73;86573.50;5109843;28;20205;-61
2023/12/30 06:42:57;;;;;;;56.37;29.77;;;;;;;-144.30;87.41;86581.44;5112264;28;20230;-61
2023/12/30 06:45:24;;;;;;;53.33;30.47;;;;;;;-144.30;87.29;86541.69;5109338;28;20657;-62
2023/12/30 06:47:51;;;;;;;58.87;33.77;;;;;;;-144.30;86.29;86426.34;5108731;28;20194;-62
2023/12/30 06:50:21;;;;;;;61.10;32.27;;;;;;;-144.30;86.16;86529.75;5109735;28;20187;-62
2023/12/30 06:52:48;;;;;;;73.77;34.63;;;;;;;-144.30;86.92;86547.66;5109417;28;20198;-62
2023/12/30 06:55:15;;;;;;;58.40;32.07;;;;;;;-144.30;87.12;86569.50;5108737;28;20317;-62
2023/12/30 06:57:42;;;;;;;57.73;30.40;;;;;;;-144.30;87.00;86573.50;5109637;28;20198;-62
2023/12/30 07:00:11;;;;;;;58.07;31.37;;;;;;;-144.30;86.92;86529.75;5109995;28;20584;-61
2023/12/30 07:02:40;;;;;;;63.77;32.77;;;;;;;-144.30;86.85;86973.22;5109325;28;20285;-62
2023/12/30 07:05:08;;;;;;;59.07;30.83;;;;;;;-144.30;86.13;86541.69;5109493;28;20282;-61
2023/12/30 07:07:35;;;;;;;59.43;31.77;;;;;;;-144.30;86.04;86511.84;5109665;28;20200;-63
2023/12/30 07:10:03;;;;;;;55.87;29.13;;;;;;;-144.30;85.61;86535.72;5109576;28;20190;-62
2023/12/30 07:12:30;;;;;;;51.07;26.97;;;;;;;-144.30;84.11;86503.91;5109578;28;20195;-62
2023/12/30 07:14:57;;;;;;;43.53;24.07;;;;;;;-144.30;83.24;86513.84;5109440;28;20705;-62
2023/12/30 07:17:26;;;;;;;39.67;21.57;;;;;;;-144.30;82.61;86487.97;5109549;28;20709;-62
2023/12/30 07:19:53;;;;;;;37.07;22.20;;;;;;;-144.30;81.89;86470.09;5109558;28;20581;-62
2023/12/30 07:22:20;;;;;;;35.93;21.07;;;;;;;-144.30;80.63;86480.03;5109440;28;20281;-53
2023/12/30 07:24:47;;;;;;;38.90;20.97;;;;;;;-144.30;79.03;86434.28;5109297;28;20198;-54
2023/12/30 07:27:14;;;;;;;37.37;21.20;;;;;;;-144.30;78.00;86474.06;5109456;28;20195;-61
2023/12/30 07:29:41;;;;;;;42.60;23.17;;;;;;;-144.30;78.40;86466.09;5109540;28;20222;-62
2023/12/30 07:32:08;;;;;;;49.40;28.67;;;;;;;-144.30;79.10;86470.09;5109656;28;20195;-62
2023/12/30 07:34:36;;;;;;;46.37;27.63;;;;;;;-144.30;78.66;86422.38;5113318;28;20215;-62
2023/12/30 07:37:04;;;;;;;46.70;27.50;;;;;;;-144.30;77.83;86448.22;5113186;28;20208;-62
2023/12/30 07:39:33;;;;;;;51.53;28.30;;;;;;;-144.30;77.61;86426.34;5113502;28;20199;-62
2023/12/30 07:42:00;;;;;;;51.70;29.27;;;;;;;-144.30;77.34;86450.19;5107116;28;20230;-62
2023/12/30 07:44:29;;;;;;;56.20;28.83;;;;;;;-144.30;77.26;86410.44;5112563;28;20213;-63
2023/12/30 07:46:56;;;;;;;53.33;28.03;;;;;;;-144.30;77.14;86440.25;5112037;28;20356;-63
2023/12/30 07:49:23;;;;;;;53.77;29.93;;;;;;;-144.30;76.80;86454.19;5112457;28;20202;-55
2023/12/30 07:51:53;;;;;;;52.20;27.80;;;;;;;-144.30;76.39;86416.41;5112492;27;20199;-62
2023/12/30 07:54:20;;;;;;;48.60;27.90;;;;;;;-144.30;76.04;86410.44;5112019;28;20225;-62
2023/12/30 07:56:46;;;;;;;46.47;27.03;;;;;;;-144.30;75.64;86390.53;5112060;28;20674;-62
2023/12/30 07:59:13;;;;;;;52.83;26.23;;;;;;;-144.30;74.72;86400.50;5112187;28;20202;-61
2023/12/30 08:01:44;;;;;;;51.77;25.60;;;;;;;-144.30;75.00;86406.44;5112155;28;20564;-64
2023/12/30 08:04:11;;;;;;;42.37;26.13;;;;;;;-144.30;74.34;86434.28;5112572;28;20218;-63
2023/12/30 08:06:40;;;;;;;48.20;27.70;;;;;;;-144.30;74.19;86305.03;5112560;28;20601;-64
2023/12/30 08:09:09;;;;;;;50.10;28.03;;;;;;;-144.30;74.38;86386.56;5112165;28;20524;-64
2023/12/30 08:11:36;;;;;;;43.77;26.50;;;;;;;-144.30;74.50;86398.50;5111644;27;20218;-63
2023/12/30 08:14:03;;;;;;;52.00;29.77;;;;;;;-144.30;74.19;86418.38;5111356;28;20249;-64
2023/12/30 08:16:30;;;;;;;58.33;32.90;;;;;;;-144.30;73.61;86394.53;5111749;28;20195;-65
2023/12/30 08:18:57;;;;;;;60.63;33.77;;;;;;;-144.30;74.03;86394.53;5111062;28;20281;-64
2023/12/30 08:21:24;;;;;;;67.60;34.60;;;;;;;-144.30;74.11;86436.28;5113008;28;20205;-65
2023/12/30 08:23:51;;;;;;;65.83;36.80;;;;;;;-144.30;73.63;86382.59;5111399;28;20194;-54
2023/12/30 08:26:19;;;;;;;67.40;37.03;;;;;;;-144.30;73.15;86370.66;5111596;28;20561;-55
2023/12/30 08:28:46;;;;;;;72.10;37.93;;;;;;;-144.30;73.58;86434.28;5111395;28;20191;-56
2023/12/30 08:31:13;;;;;;;62.87;36.57;;;;;;;-144.30;73.10;86402.47;5112088;28;20619;-55
2023/12/30 08:33:40;;;;;;;68.23;35.93;;;;;;;-144.30;72.88;86412.41;5112112;28;20247;-56
2023/12/30 08:36:07;;;;;;;57.17;33.73;;;;;;;-144.30;73.15;86388.56;5111316;28;20229;-55
2023/12/30 08:38:34;;;;;;;52.17;30.97;;;;;;;-144.30;72.95;86358.72;5111888;28;20587;-56
2023/12/30 08:41:02;;;;;;;52.63;29.97;;;;;;;-144.30;72.89;86396.50;5111132;28;20197;-55
2023/12/30 08:43:30;;;;;;;49.43;29.37;;;;;;;-144.30;73.36;86370.66;5111307;28;20198;-54
2023/12/30 08:45:57;;;;;;;43.43;23.83;;;;;;;-144.30;73.26;86412.41;5110556;28;20205;-55
2023/12/30 08:48:24;;;;;;;46.40;28.33;;;;;;;-144.30;72.97;86406.44;5112082;28;20194;-55
2023/12/30 08:50:51;;;;;;;40.23;24.97;;;;;;;-144.30;72.60;86374.63;5111374;28;20199;-54
2023/12/30 08:53:24;;;;;;;44.37;24.83;;;;;;;-144.30;72.39;86370.66;5111952;28;20202;-54
2023/12/30 08:55:51;;;;;;;28.00;18.90;;;;;;;-144.30;72.44;86364.69;5111073;28;20339;-55
2023/12/30 08:58:18;;;;;;;28.20;17.87;;;;;;;-144.30;72.29;86402.47;5111312;28;20251;-55
2023/12/30 09:00:46;;;;;;;30.27;17.60;;;;;;;-144.30;71.38;86370.66;5111897;28;20194;-55
2023/12/30 09:03:13;;;;;;;28.10;17.60;;;;;;;-144.30;71.38;86366.69;5111015;28;20335;-55
2023/12/30 09:05:41;;;;;;;22.07;14.83;;;;;;;-144.30;72.20;86366.69;5110982;28;20194;-53
2023/12/30 09:08:08;;;;;;;27.10;17.43;;;;;;;-144.30;71.42;86358.72;5111214;28;20195;-55
2023/12/30 09:10:35;;;;;;;26.43;15.20;;;;;;;-144.30;71.05;86362.72;5110416;28;20702;-53
2023/12/30 09:13:01;;;;;;;22.23;14.73;;;;;;;-144.30;71.26;86350.78;5110532;28;20242;-55
2023/12/30 09:15:28;;;;;;;25.47;14.30;;;;;;;-144.30;70.84;86344.81;5111346;28;20237;-58
2023/12/30 09:17:58;;;;;;;19.50;13.33;;;;;;;-144.30;69.54;86346.81;5110786;28;20194;-60
2023/12/30 09:20:25;;;;;;;25.93;14.13;;;;;;;-144.30;69.10;86372.66;5105852;28;20207;-59
2023/12/30 09:22:52;;;;;;;21.93;14.00;;;;;;;-144.30;69.73;86354.75;5110389;28;20220;-60
2023/12/30 09:25:19;;;;;;;21.77;14.67;;;;;;;-144.30;69.82;86346.81;5111542;28;20195;-59
2023/12/30 09:27:46;;;;;;;22.83;14.93;;;;;;;-144.30;70.10;86330.88;5111269;28;20209;-60
2023/12/30 09:30:14;;;;;;;22.80;13.57;;;;;;;-144.30;70.37;86316.97;5110695;27;20206;-59
2023/12/30 09:32:41;;;;;;;22.67;13.80;;;;;;;-144.30;69.31;86305.03;5108050;28;20199;-55
2023/12/30 09:35:09;;;;;;;23.67;14.20;;;;;;;-144.30;69.29;86318.97;5106941;28;20220;-55
2023/12/30 09:37:36;;;;;;;23.93;15.07;;;;;;;-144.30;69.67;86253.34;5108810;28;20199;-55
2023/12/30 09:40:04;;;;;;;24.97;13.30;;;;;;;-144.30;68.77;86293.09;5108783;28;20209;-59
2023/12/30 09:42:31;;;;;;;19.83;12.70;;;;;;;-144.30;68.34;86309.03;5108741;28;20261;-54
2023/12/30 09:44:59;;;;;;;21.37;13.00;;;;;;;-144.30;69.27;86307.03;5110167;28;20581;-55
2023/12/30 09:47:28;;;;;;;24.00;13.47;;;;;;;-144.30;73.64;86309.03;5110696;28;20221;-55
2023/12/30 09:49:55;;;;;;;24.80;13.63;;;;;;;-144.30;74.47;86305.03;5109703;28;20305;-55
2023/12/30 09:52:24;;;;;;;19.03;11.93;;;;;;;-144.30;72.42;86203.63;5110329;28;20198;-54
2023/12/30 09:54:51;;;;;;;16.30;12.07;;;;;;;-144.30;71.40;86225.50;5109773;28;20219;-54
2023/12/30 09:57:18;;;;;;;16.03;11.70;;;;;;;-144.30;71.53;86227.50;5109994;28;20197;-56
2023/12/30 09:59:46;;;;;;;18.17;11.57;;;;;;;-144.30;68.25;86255.34;5110315;28;20591;-55
2023/12/30 10:02:14;;;;;;;18.80;12.53;;;;;;;-144.30;67.79;86233.47;5110085;28;20286;-59
2023/12/30 10:04:41;;;;;;;20.50;12.27;;;;;;;-144.30;67.53;86259.31;5109387;28;20198;-59
2023/12/30 10:07:08;;;;;;;18.87;11.80;;;;;;;-144.30;66.21;86263.28;5109907;28;20217;-55
2023/12/30 10:09:36;;;;;;;21.90;12.53;;;;;;;-144.30;66.17;86285.16;5110235;28;20198;-55
2023/12/30 10:12:06;;;;;;;20.73;12.03;;;;;;;-144.30;65.73;86215.56;5109824;28;20198;-55
2023/12/30 10:14:33;;;;;;;22.53;12.27;;;;;;;-144.30;65.30;86251.34;5109794;28;20222;-59
2023/12/30 10:17:03;;;;;;;16.57;12.23;;;;;;;-144.30;67.04;86261.28;5109767;28;20195;-59
2023/12/30 10:19:30;;;;;;;21.37;12.10;;;;;;;-144.30;67.12;86193.69;5109155;28;20199;-59
2023/12/30 10:21:57;;;;;;;18.00;12.37;;;;;;;-144.30;65.22;86140.00;5109566;28;20202;-54
2023/12/30 10:24:25;;;;;;;18.90;11.67;;;;;;;-144.30;64.35;86203.63;5109948;28;20190;-55
2023/12/30 10:26:53;;;;;;;17.33;12.03;;;;;;;-144.30;63.39;86161.88;5109906;28;20275;-59
2023/12/30 10:29:20;;;;;;;17.30;12.73;;;;;;;-144.30;64.14;86189.72;5109924;28;20191;-59
2023/12/30 10:32:00;;;;;;;20.13;12.93;;;;;;;-144.30;63.94;86175.78;5109732;28;20301;-59
2023/12/30 10:34:27;;;;;;;25.90;13.40;;;;;;;-144.30;63.73;86138.00;5109104;28;20697;-54
2023/12/30 10:36:54;;;;;;;24.97;13.87;;;;;;;-144.30;64.39;86163.88;5109859;28;20667;-55
2023/12/30 10:39:23;;;;;;;18.40;13.00;;;;;;;-144.30;64.16;86151.94;5109679;28;20194;-54
2023/12/30 10:41:50;;;;;;;21.63;13.43;;;;;;;-144.30;63.70;86173.81;5109347;28;20640;-54
2023/12/30 10:44:19;;;;;;;22.37;12.67;;;;;;;-144.30;63.21;86151.94;5109838;28;20673;-59
2023/12/30 10:46:49;;;;;;;23.67;13.97;;;;;;;-144.30;64.76;86143.97;5109334;28;20205;-55
2023/12/30 10:49:17;;;;;;;22.23;14.03;;;;;;;-144.30;62.69;86143.97;5109311;28;20198;-53
2023/12/30 10:51:44;;;;;;;22.03;12.97;;;;;;;-144.30;62.68;86143.97;5109780;28;20689;-53
2023/12/30 10:54:19;;;;;;;20.33;14.23;;;;;;;-144.30;62.47;86138.00;5109795;28;20280;-56
2023/12/30 10:56:53;;;;;;;25.83;14.63;;;;;;;-144.30;62.08;86143.97;5109701;28;20218;-61
2023/12/30 10:59:23;;;;;;;21.63;14.40;;;;;;;-144.30;61.13;86112.16;5109959;28;20237;-58
2023/12/30 11:01:50;;;;;;;27.10;14.83;;;;;;;-144.30;61.41;86116.16;5109481;28;20228;-60
2023/12/30 11:04:18;;;;;;;26.43;15.50;;;;;;;-144.30;63.75;86088.31;5109056;28;20709;-60